Ciutat Vella, Spain
Current Conditions -  °F | °C
As of 3:30 AM on Sunday 26 Oct 2014 (Local Time) from LEBL Reporting Station
Few Clouds Few Clouds  
Wind Chill: 63°   Ceiling: Unl
Heat Index: 63°   Visibility: 6mi
Dew Point: 59°   Wind: 8mph
Humidity: 88%   Direction: 330°NNW
Pressure: 30.15"   Gusts: NA
Location:  41.38°N, 2.17°E
Report Text: LEBL 260130Z 33007KT 9000 FEW011 17/15 Q1021 NOSIG
Loading
Personal Weather Stations






























Interactive Weather Map
Tropical Storm Tracking
New forecast layout! Learn more

10-Day Weather Forecast

Advertisements
Track Severe Weather on mobile